Time;durP1;ratioP1;P1;durP2;ratioP2;P2;SDS_P1;SDS_P2;PMS_P1;PMS_P2;Temp;Humidity;BMP_temperature;BMP_pressure;BME280_temperature;BME280_humidity;BME280_pressure;Samples;Min_cycle;Max_cycle;Signal;HPM_P1;HPM_P2
2022/10/02 00:00:18;;;;;;;12.05;4.55;;;;;;;13.27;96.88;100140.53;5059115;28;20044;-89
2022/10/02 00:02:52;;;;;;;15.65;4.53;;;;;;;13.22;97.88;100140.91;5059013;28;20056;-88
2022/10/02 00:05:39;;;;;;;14.73;4.60;;;;;;;13.19;97.72;100157.22;5084371;28;20081;-88
2022/10/02 00:08:10;;;;;;;9.18;3.50;;;;;;;13.27;97.18;100151.19;5075748;28;20536;-87
2022/10/02 00:10:43;;;;;;;14.63;4.30;;;;;;;13.30;97.31;100147.41;5071457;28;20117;-87
2022/10/02 00:13:15;;;;;;;9.90;3.70;;;;;;;13.27;96.95;100169.03;5084347;28;20047;-87
2022/10/02 00:15:42;;;;;;;10.02;4.82;;;;;;;13.29;97.03;100175.06;5038775;28;20054;-87
2022/10/02 00:18:15;;;;;;;9.63;4.05;;;;;;;13.28;96.75;100168.03;5070829;28;20047;-87
2022/10/02 00:20:57;;;;;;;13.85;4.05;;;;;;;13.31;96.96;100152.59;5070330;28;20043;-87
2022/10/02 00:23:44;;;;;;;10.43;3.50;;;;;;;13.22;96.71;100138.25;5082564;28;20096;-84
2022/10/02 00:26:19;;;;;;;16.38;3.60;;;;;;;13.27;96.78;100147.69;5075303;28;20040;-85
2022/10/02 00:29:12;;;;;;;11.95;3.70;;;;;;;13.26;97.02;100149.50;5073449;28;20547;-85
2022/10/02 00:31:46;;;;;;;11.32;4.03;;;;;;;13.29;96.95;100167.91;5074921;28;20043;-85
2022/10/02 00:34:29;;;;;;;9.80;3.55;;;;;;;13.25;96.94;100178.00;5084122;28;20055;-84
2022/10/02 00:37:27;;;;;;;18.40;5.32;;;;;;;13.23;96.89;100181.78;5068128;28;20051;-84
2022/10/02 00:40:18;;;;;;;21.52;5.53;;;;;;;13.23;96.90;100182.63;5073367;28;20093;-84
2022/10/02 00:42:51;;;;;;;11.52;3.42;;;;;;;13.29;96.88;100153.72;5102916;28;20044;-84
2022/10/02 00:45:24;;;;;;;18.90;4.97;;;;;;;13.31;96.87;100162.44;5090614;28;20035;-85
2022/10/02 00:48:21;;;;;;;15.77;4.70;;;;;;;13.27;97.34;100174.34;5086031;28;20051;-84
2022/10/02 00:51:17;;;;;;;14.20;3.75;;;;;;;13.32;97.15;100172.09;5075118;28;20067;-84
2022/10/02 00:54:06;;;;;;;15.18;4.00;;;;;;;13.25;97.31;100193.13;5047829;28;20151;-84
2022/10/02 00:57:06;;;;;;;8.82;3.75;;;;;;;13.26;97.14;100173.50;5056026;28;20039;-85
2022/10/02 00:59:51;;;;;;;12.93;3.75;;;;;;;13.31;97.35;100184.59;5070258;28;20169;-85
2022/10/02 01:02:30;;;;;;;10.35;3.97;;;;;;;13.29;97.22;100183.91;5057474;28;20679;-85
2022/10/02 01:05:00;;;;;;;17.50;5.22;;;;;;;13.35;97.45;100179.81;5071977;28;20043;-85
2022/10/02 01:07:26;;;;;;;18.25;4.63;;;;;;;13.36;97.48;100177.00;5073592;28;20480;-85
2022/10/02 01:09:54;;;;;;;21.52;4.60;;;;;;;13.36;97.78;100176.16;5068947;28;20154;-85
2022/10/02 01:12:21;;;;;;;13.30;5.25;;;;;;;13.37;97.29;100168.00;5054802;28;20084;-87
2022/10/02 01:14:48;;;;;;;17.85;4.55;;;;;;;13.37;97.40;100176.00;5084451;28;20036;-86
2022/10/02 01:17:33;;;;;;;17.25;5.38;;;;;;;13.29;97.83;100164.41;5082580;28;20446;-86
2022/10/02 01:20:03;;;;;;;16.23;4.55;;;;;;;13.35;97.66;100155.78;5072138;28;20055;-85
2022/10/02 01:22:40;;;;;;;15.02;3.95;;;;;;;13.33;97.76;100184.44;5069029;28;20069;-84
2022/10/02 01:25:07;;;;;;;15.48;4.32;;;;;;;13.37;97.75;100184.00;5085423;28;20047;-85
2022/10/02 01:27:34;;;;;;;16.52;4.43;;;;;;;13.39;97.42;100181.22;5083483;28;20054;-83
2022/10/02 01:30:14;;;;;;;11.18;3.55;;;;;;;13.34;98.09;100173.63;5087399;28;20044;-84
2022/10/02 01:33:02;;;;;;;12.82;3.78;;;;;;;13.30;97.46;100166.91;5082920;28;20071;-84
2022/10/02 01:35:30;;;;;;;13.60;4.32;;;;;;;13.39;97.77;100157.19;5078419;28;20051;-84
2022/10/02 01:37:59;;;;;;;13.60;4.60;;;;;;;13.41;97.82;100165.91;5080881;28;20082;-85
2022/10/02 01:40:31;;;;;;;16.33;4.88;;;;;;;13.39;97.33;100173.22;5048623;28;20494;-84
2022/10/02 01:43:07;;;;;;;14.68;3.72;;;;;;;13.33;97.42;100177.31;5073301;28;20435;-85
2022/10/02 01:45:56;;;;;;;16.35;3.90;;;;;;;13.32;97.20;100166.75;5073131;28;20044;-85
2022/10/02 01:48:45;;;;;;;10.75;4.05;;;;;;;13.34;97.56;100173.63;5096541;28;20048;-85
2022/10/02 01:51:33;;;;;;;20.85;3.53;;;;;;;13.34;97.54;100175.47;5072412;28;20449;-85
2022/10/02 01:54:07;;;;;;;11.98;3.33;;;;;;;13.36;97.35;100166.34;5064936;28;20453;-85
2022/10/02 01:56:47;;;;;;;24.10;4.38;;;;;;;13.41;97.69;100173.91;5072805;28;20149;-86
2022/10/02 01:59:27;;;;;;;10.43;3.60;;;;;;;13.39;97.62;100184.72;5085356;28;20413;-85
2022/10/02 02:02:22;;;;;;;16.35;3.67;;;;;;;13.31;97.89;100189.94;5078124;28;20056;-86
2022/10/02 02:04:55;;;;;;;9.77;3.00;;;;;;;13.35;97.46;100190.47;5059282;28;20054;-86
2022/10/02 02:07:28;;;;;;;17.33;4.55;;;;;;;13.38;97.64;100185.72;5093657;28;20105;-86
2022/10/02 02:10:08;;;;;;;9.60;3.70;;;;;;;13.32;97.44;100186.28;5086336;28;20040;-86
2022/10/02 02:12:42;;;;;;;14.50;3.67;;;;;;;13.38;97.48;100185.72;5088650;28;20048;-86
2022/10/02 02:15:15;;;;;;;13.52;4.80;;;;;;;13.39;97.43;100183.88;5068841;28;20052;-86
2022/10/02 02:18:06;;;;;;;16.40;3.70;;;;;;;13.32;97.49;100186.28;5079938;28;20100;-86
2022/10/02 02:20:37;;;;;;;19.25;4.22;;;;;;;13.39;97.55;100182.03;5054451;28;20078;-86
2022/10/02 02:23:06;;;;;;;12.15;3.75;;;;;;;13.41;97.50;100182.75;5071046;28;20055;-86
2022/10/02 02:25:37;;;;;;;8.10;3.13;;;;;;;13.43;97.55;100179.91;5074120;28;20043;-86
2022/10/02 02:28:08;;;;;;;11.25;3.17;;;;;;;13.41;97.28;100181.91;5078637;28;20552;-86
2022/10/02 02:30:37;;;;;;;10.85;3.97;;;;;;;13.45;97.31;100183.28;5069446;28;20437;-86
2022/10/02 02:33:08;;;;;;;11.40;3.55;;;;;;;13.42;97.40;100179.06;5072145;28;20063;-86
2022/10/02 02:35:41;;;;;;;12.18;3.58;;;;;;;13.42;97.26;100184.41;5059932;28;20093;-87
2022/10/02 02:38:12;;;;;;;9.93;4.20;;;;;;;13.44;97.47;100197.63;5082100;28;20504;-87
2022/10/02 02:40:42;;;;;;;15.80;4.10;;;;;;;13.44;97.40;100189.63;5074617;28;20051;-87
2022/10/02 02:43:16;;;;;;;12.88;4.43;;;;;;;13.42;97.54;100191.59;5076877;28;20097;-87
2022/10/02 02:45:49;;;;;;;17.08;4.95;;;;;;;13.44;97.42;100190.44;5076195;28;20051;-87
2022/10/02 02:48:26;;;;;;;;;;;;;;;13.29;98.20;100202.56;5070994;28;20046;-87
2022/10/02 02:51:01;;;;;;;12.43;4.65;;;;;;;13.40;97.76;100204.22;5076029;28;19967;-87
2022/10/02 02:53:35;;;;;;;14.25;5.00;;;;;;;13.41;97.64;100195.25;5064980;28;20036;-87
2022/10/02 02:56:04;;;;;;;14.00;4.78;;;;;;;13.44;97.81;100195.78;5064872;28;20052;-87
2022/10/02 02:58:46;;;;;;;9.00;5.50;;;;;;;13.39;97.94;100195.38;5085490;28;20040;-86
2022/10/02 03:01:13;;;;;;;20.95;4.95;;;;;;;13.46;98.00;100184.97;5091113;28;20051;-86
2022/10/02 03:03:40;;;;;;;11.15;5.03;;;;;;;13.46;98.19;100193.81;5059377;28;20076;-86
2022/10/02 03:06:17;;;;;;;10.75;4.35;;;;;;;13.43;97.96;100203.91;5064469;28;20044;-86
2022/10/02 03:08:44;;;;;;;17.80;5.32;;;;;;;13.49;98.15;100203.34;5085441;28;20059;-86
2022/10/02 03:11:29;;;;;;;19.30;5.22;;;;;;;13.42;98.10;100192.41;5054515;28;20040;-87
2022/10/02 03:14:00;;;;;;;16.63;4.88;;;;;;;13.48;98.02;100196.31;5076046;28;20078;-87
2022/10/02 03:16:39;;;;;;;9.88;4.97;;;;;;;13.43;98.16;100187.91;5087224;28;20081;-88
2022/10/02 03:19:44;;;;;;;18.30;5.07;;;;;;;13.41;98.29;100192.56;5080096;28;20048;-87
2022/10/02 03:22:44;;;;;;;17.38;4.55;;;;;;;13.43;97.93;100187.91;5067137;28;20044;-87
2022/10/02 03:25:23;;;;;;;17.15;5.05;;;;;;;13.43;98.06;100179.91;5067093;28;20462;-87
2022/10/02 03:27:56;;;;;;;18.50;4.97;;;;;;;13.51;98.29;100192.53;5066075;28;20618;-87
2022/10/02 03:30:23;;;;;;;12.82;4.32;;;;;;;13.50;98.34;100194.34;5074700;28;20051;-87
2022/10/02 03:32:52;;;;;;;24.90;4.47;;;;;;;13.52;98.26;100189.72;5052278;28;20380;-86
2022/10/02 03:35:20;;;;;;;15.27;4.70;;;;;;;13.51;98.13;100180.03;5044755;28;20093;-87
2022/10/02 03:37:50;;;;;;;15.30;4.75;;;;;;;13.51;98.12;100195.19;5047114;28;20138;-86
2022/10/02 03:40:20;;;;;;;20.33;5.00;;;;;;;13.51;97.93;100203.19;5054677;28;20939;-86
2022/10/02 03:42:47;;;;;;;17.10;5.10;;;;;;;13.54;98.14;100208.25;5078433;28;20043;-86
2022/10/02 03:45:14;;;;;;;15.75;4.18;;;;;;;13.53;98.28;100207.41;5070809;28;20443;-86
2022/10/02 03:48:01;;;;;;;18.05;4.90;;;;;;;13.52;98.19;100213.72;5084841;28;20399;-86
2022/10/02 03:50:28;;;;;;;18.65;4.38;;;;;;;13.54;97.96;100213.59;5070927;28;20402;-86
2022/10/02 03:53:09;;;;;;;17.55;4.13;;;;;;;13.52;97.92;100205.72;5086037;28;20047;-87
2022/10/02 03:55:38;;;;;;;17.00;4.38;;;;;;;13.54;97.83;100202.94;5082437;28;20042;-87
2022/10/02 03:58:12;;;;;;;18.50;4.10;;;;;;;13.52;97.69;100204.91;5075279;28;20452;-86
2022/10/02 04:00:45;;;;;;;20.13;5.07;;;;;;;13.55;97.91;100209.94;5072826;28;20048;-86
2022/10/02 04:03:26;;;;;;;14.73;3.80;;;;;;;13.50;97.75;100206.84;5071739;28;20043;-85
2022/10/02 04:06:02;;;;;;;15.90;4.00;;;;;;;13.52;97.98;100202.22;5059264;28;20042;-85
2022/10/02 04:08:34;;;;;;;14.98;4.28;;;;;;;13.56;97.64;100203.59;5087104;28;20048;-85
2022/10/02 04:11:15;;;;;;;22.10;4.72;;;;;;;13.54;97.60;100192.25;5071819;28;20050;-85
2022/10/02 04:13:52;;;;;;;19.27;4.28;;;;;;;13.53;97.77;100201.22;5096840;28;20472;-85
2022/10/02 04:16:39;;;;;;;16.88;4.43;;;;;;;13.49;98.29;100202.53;5085279;28;20059;-84
2022/10/02 04:19:09;;;;;;;17.20;3.97;;;;;;;13.56;98.07;100204.47;5084026;28;20048;-85
2022/10/02 04:21:50;;;;;;;13.45;3.95;;;;;;;13.52;97.91;100203.06;5064028;28;20062;-85
2022/10/02 04:24:24;;;;;;;12.98;4.45;;;;;;;13.56;97.94;100206.25;5083286;28;20056;-84
2022/10/02 04:27:03;;;;;;;23.77;4.32;;;;;;;13.55;97.54;100204.59;5052630;28;20112;-84
2022/10/02 04:29:36;;;;;;;19.85;4.28;;;;;;;13.55;97.57;100210.75;5055088;28;20082;-85
2022/10/02 04:32:12;;;;;;;22.60;5.15;;;;;;;13.57;97.99;100207.97;5072835;28;20051;-84
2022/10/02 04:34:39;;;;;;;23.10;5.38;;;;;;;13.59;98.32;100206.00;5056544;28;20048;-85
2022/10/02 04:37:15;;;;;;;19.17;4.20;;;;;;;13.61;97.99;100217.34;5063972;28;20113;-85
2022/10/02 04:40:07;;;;;;;20.50;4.40;;;;;;;13.56;97.63;100214.28;5097474;28;20043;-84
2022/10/02 04:43:00;;;;;;;18.50;4.38;;;;;;;13.56;97.80;100216.94;5055901;28;20046;-84
2022/10/02 04:45:36;;;;;;;21.13;5.18;;;;;;;13.58;97.94;100221.13;5057048;28;20040;-86
2022/10/02 04:48:24;;;;;;;11.63;4.43;;;;;;;13.52;98.13;100215.56;5073564;28;20036;-85
2022/10/02 04:51:33;;;;;;;22.33;6.20;;;;;;;13.52;97.98;100215.56;5068041;28;20036;-85
2022/10/02 04:54:25;;;;;;;18.10;4.20;;;;;;;13.57;97.72;100206.13;5077202;28;20044;-85
2022/10/02 04:57:19;;;;;;;10.98;3.92;;;;;;;13.56;97.91;100207.13;5084345;28;20067;-85
2022/10/02 05:00:09;;;;;;;14.70;4.40;;;;;;;13.53;98.09;100206.56;5087773;28;20040;-85
2022/10/02 05:02:49;;;;;;;13.10;3.83;;;;;;;13.56;98.04;100201.78;5069572;28;20047;-85
2022/10/02 05:05:34;;;;;;;16.15;4.45;;;;;;;13.63;98.11;100210.03;5066965;28;20112;-86
2022/10/02 05:08:10;;;;;;;14.70;4.78;;;;;;;13.63;98.16;100200.19;5094719;28;20067;-85
2022/10/02 05:10:59;;;;;;;18.17;4.85;;;;;;;13.55;97.92;100196.59;5089471;28;20459;-86
2022/10/02 05:13:42;;;;;;;29.58;5.55;;;;;;;13.58;97.69;100199.78;5073118;28;20079;-86
2022/10/02 05:16:27;;;;;;;17.02;4.05;;;;;;;13.60;97.56;100189.00;5067880;28;20048;-86
2022/10/02 05:19:12;;;;;;;18.13;4.30;;;;;;;13.56;97.03;100192.94;5052513;28;20048;-86
2022/10/02 05:22:20;;;;;;;21.80;4.53;;;;;;;13.55;96.89;100201.94;5082757;28;20036;-86
2022/10/02 05:25:05;;;;;;;21.88;3.50;;;;;;;13.54;97.40;100190.41;5080340;28;20545;-85
2022/10/02 05:27:46;;;;;;;17.17;3.78;;;;;;;13.56;97.25;100204.47;5104008;28;20051;-85
2022/10/02 05:30:17;;;;;;;18.33;3.33;;;;;;;13.60;97.52;100210.34;5081279;28;20115;-85
2022/10/02 05:33:02;;;;;;;20.70;4.90;;;;;;;13.56;97.53;100214.28;5065665;28;20040;-86
2022/10/02 05:35:34;;;;;;;16.55;4.43;;;;;;;13.59;97.65;100214.00;5075396;28;20052;-83
2022/10/02 05:38:18;;;;;;;15.82;4.80;;;;;;;13.60;97.55;100202.34;5078258;28;20036;-85
2022/10/02 05:41:02;;;;;;;18.17;4.00;;;;;;;13.55;97.78;100202.75;5102404;28;20079;-84
2022/10/02 05:43:38;;;;;;;21.13;3.80;;;;;;;13.61;97.56;100212.00;5041557;28;20044;-85
2022/10/02 05:46:10;;;;;;;19.55;4.80;;;;;;;13.62;97.89;100216.38;5075698;28;20055;-85
2022/10/02 05:48:41;;;;;;;19.73;4.00;;;;;;;13.62;97.65;100203.03;5077503;28;20040;-86
2022/10/02 05:51:14;;;;;;;9.98;3.22;;;;;;;13.61;97.51;100204.88;5091524;28;20079;-85
2022/10/02 05:53:56;;;;;;;10.23;4.07;;;;;;;13.54;98.08;100202.94;5070399;28;20097;-85
2022/10/02 05:56:31;;;;;;;20.08;3.80;;;;;;;13.59;97.63;100206.00;5067697;28;20047;-84
2022/10/02 05:59:29;;;;;;;20.63;4.65;;;;;;;13.58;97.29;100204.28;5078125;28;20071;-85
2022/10/02 06:01:57;;;;;;;14.20;3.70;;;;;;;13.64;97.40;100204.56;5101809;28;20048;-84
2022/10/02 06:04:35;;;;;;;12.82;3.20;;;;;;;13.59;97.76;100211.34;5076670;28;20059;-86
2022/10/02 06:07:07;;;;;;;12.93;3.78;;;;;;;13.61;97.32;100207.53;5075621;28;20047;-86
2022/10/02 06:09:43;;;;;;;19.55;3.95;;;;;;;13.63;97.87;100216.22;5077618;28;20487;-85
2022/10/02 06:12:13;;;;;;;14.50;3.95;;;;;;;13.64;97.63;100219.75;5076165;28;20121;-85
2022/10/02 06:14:40;;;;;;;16.48;5.10;;;;;;;13.64;97.86;100209.91;5093463;28;20043;-84
2022/10/02 06:17:18;;;;;;;14.95;3.78;;;;;;;13.61;97.82;100215.53;5082865;28;20042;-84
2022/10/02 06:20:33;;;;;;;18.08;6.10;;;;;;;13.56;98.16;100223.13;5088717;28;20040;-84
2022/10/02 06:23:15;;;;;;;11.88;4.07;;;;;;;13.57;97.88;100219.47;5050992;28;20055;-84
2022/10/02 06:25:44;;;;;;;20.27;4.80;;;;;;;13.66;97.95;100217.75;5084043;28;20059;-84
2022/10/02 06:28:18;;;;;;;14.63;4.30;;;;;;;13.64;97.64;100228.59;5053638;28;20040;-84
2022/10/02 06:30:50;;;;;;;16.20;4.88;;;;;;;13.66;97.77;100218.59;5073385;28;20039;-84
2022/10/02 06:33:25;;;;;;;10.38;4.40;;;;;;;13.63;98.08;100223.38;5076007;28;20089;-84
2022/10/02 06:36:12;;;;;;;11.30;4.05;;;;;;;13.67;98.12;100217.59;5070333;28;20670;-84
2022/10/02 06:38:59;;;;;;;16.10;3.72;;;;;;;13.58;97.96;100218.47;5076570;28;20074;-84
2022/10/02 06:41:40;;;;;;;9.93;3.60;;;;;;;13.62;97.57;100216.38;5075345;28;20059;-84
2022/10/02 06:44:13;;;;;;;10.95;3.20;;;;;;;13.68;98.06;100210.44;5090200;28;20429;-84
2022/10/02 06:46:48;;;;;;;7.63;2.97;;;;;;;13.66;97.69;100210.59;5068198;28;20097;-84
2022/10/02 06:49:49;;;;;;;11.98;3.17;;;;;;;13.62;97.60;100211.88;5103050;28;20164;-84
2022/10/02 06:52:57;;;;;;;11.07;3.53;;;;;;;13.62;97.81;100216.38;5045129;28;20117;-84
2022/10/02 06:55:47;;;;;;;5.05;2.88;;;;;;;13.65;97.78;100214.25;5078850;28;20040;-84
2022/10/02 06:58:55;;;;;;;9.80;3.67;;;;;;;13.57;97.45;100199.97;5088834;28;20104;-84
2022/10/02 07:01:45;;;;;;;12.65;2.90;;;;;;;13.60;97.24;100192.50;4990386;28;20543;-84
2022/10/02 07:04:23;;;;;;;9.60;3.05;;;;;;;13.64;97.47;100190.38;5002934;28;20060;-85
2022/10/02 07:07:11;;;;;;;10.98;3.00;;;;;;;13.65;97.48;100202.72;5055166;28;20089;-84
2022/10/02 07:10:16;;;;;;;11.20;2.70;;;;;;;13.60;97.63;100210.34;5073342;28;20154;-84
2022/10/02 07:13:06;;;;;;;11.27;3.10;;;;;;;13.62;97.65;100213.69;5003543;28;20540;-84
2022/10/02 07:16:08;;;;;;;14.45;3.22;;;;;;;13.61;97.64;100220.88;5089246;28;20046;-84
2022/10/02 07:18:46;;;;;;;14.30;2.78;;;;;;;13.67;97.77;100206.09;5100890;28;20056;-85
2022/10/02 07:21:38;;;;;;;9.05;2.70;;;;;;;13.60;97.50;100210.34;5069893;28;20047;-85
2022/10/02 07:24:14;;;;;;;9.90;2.40;;;;;;;13.70;97.56;100203.13;5090679;28;20059;-83
2022/10/02 07:26:47;;;;;;;7.97;2.50;;;;;;;13.70;97.77;100197.78;5058030;28;20097;-85
2022/10/02 07:29:26;;;;;;;7.10;2.53;;;;;;;13.67;97.64;100211.44;5072545;28;20047;-84
2022/10/02 07:32:18;;;;;;;9.60;2.75;;;;;;;13.72;97.63;100217.19;5083139;28;20445;-84
2022/10/02 07:34:59;;;;;;;12.43;3.28;;;;;;;13.66;97.45;100210.59;5086797;28;20408;-79
2022/10/02 07:37:29;;;;;;;7.20;2.20;;;;;;;13.73;97.77;100226.00;5098596;28;20092;-79
2022/10/02 07:40:16;;;;;;;4.90;2.05;;;;;;;13.68;97.33;100213.09;5070676;28;20052;-80
2022/10/02 07:42:46;;;;;;;5.13;2.53;;;;;;;13.73;97.70;100191.31;5083726;28;20058;-79
2022/10/02 07:45:35;;;;;;;8.50;2.65;;;;;;;13.65;97.41;100182.22;5067849;28;20043;-79
2022/10/02 07:48:25;;;;;;;9.70;4.10;;;;;;;13.65;97.64;100174.22;5084408;28;20093;-79
2022/10/02 07:51:03;;;;;;;8.65;3.47;;;;;;;13.70;97.48;100172.94;5074285;28;20568;-79
2022/10/02 07:53:45;;;;;;;7.03;2.78;;;;;;;13.67;97.49;100177.59;5099673;28;20048;-79
2022/10/02 07:56:18;;;;;;;5.22;3.40;;;;;;;13.73;97.68;100181.47;5071151;28;20437;-79
2022/10/02 07:58:50;;;;;;;;;;;;;;;13.57;97.81;100181.28;5101357;28;20044;-79
2022/10/02 08:01:22;;;;;;;5.82;2.10;;;;;;;13.70;97.57;100176.44;5082632;28;19920;-79
2022/10/02 08:04:01;;;;;;;2.28;1.55;;;;;;;13.67;97.81;100190.91;5052872;28;20044;-79
2022/10/02 08:06:28;;;;;;;8.02;1.90;;;;;;;13.75;97.67;100194.69;5079400;28;20059;-79
2022/10/02 08:09:10;;;;;;;7.32;1.90;;;;;;;13.71;97.26;100196.78;5083596;28;20074;-79
2022/10/02 08:11:43;;;;;;;4.88;2.05;;;;;;;13.74;97.49;100183.19;5084506;28;20063;-79
2022/10/02 08:14:37;;;;;;;4.38;1.70;;;;;;;13.70;97.54;100188.94;5085038;28;20069;-78
2022/10/02 08:17:22;;;;;;;5.25;2.35;;;;;;;13.75;97.59;100192.03;5086755;28;20050;-79
2022/10/02 08:19:49;;;;;;;4.10;2.17;;;;;;;13.78;97.79;100192.56;5098982;28;20105;-79
2022/10/02 08:22:25;;;;;;;8.55;3.25;;;;;;;13.76;97.53;100194.53;5073554;28;20060;-79
2022/10/02 08:24:55;;;;;;;5.88;3.28;;;;;;;13.79;97.58;100194.25;5082617;28;20036;-79
2022/10/02 08:27:40;;;;;;;4.55;2.80;;;;;;;13.75;97.84;100200.03;5087204;28;20040;-79
2022/10/02 08:30:11;;;;;;;5.32;2.95;;;;;;;13.80;97.84;100197.75;5098412;28;20166;-78
2022/10/02 08:32:38;;;;;;;5.20;2.45;;;;;;;13.81;98.12;100197.59;5081705;28;20044;-79
2022/10/02 08:35:10;;;;;;;5.95;3.08;;;;;;;13.80;97.93;100217.28;5068983;28;20118;-78
2022/10/02 08:37:56;;;;;;;3.75;2.95;;;;;;;13.75;97.89;100230.22;5082395;28;20495;-78
2022/10/02 08:40:54;;;;;;;8.82;5.00;;;;;;;13.75;98.12;100224.03;5098076;28;20051;-78
2022/10/02 08:43:33;;;;;;;9.23;5.00;;;;;;;13.77;98.21;100206.91;5068718;28;20165;-79
2022/10/02 08:46:22;;;;;;;8.82;3.80;;;;;;;13.76;98.25;100191.03;5079891;28;20159;-78
2022/10/02 08:48:55;;;;;;;3.55;2.22;;;;;;;13.83;98.05;100184.09;5071745;28;20144;-78
2022/10/02 08:51:59;;;;;;;6.25;3.67;;;;;;;13.76;98.24;100178.50;5102797;28;20036;-78
2022/10/02 08:54:58;;;;;;;8.25;5.25;;;;;;;13.77;98.38;100190.88;5073183;28;20035;-79
2022/10/02 08:57:48;;;;;;;9.48;5.75;;;;;;;13.76;98.74;100191.84;5078560;28;20036;-79
2022/10/02 09:00:22;;;;;;;6.18;4.55;;;;;;;13.86;98.39;100189.16;5083474;28;20040;-79
2022/10/02 09:03:14;;;;;;;6.57;4.90;;;;;;;13.80;98.32;100181.75;5079196;28;20113;-79
2022/10/02 09:06:02;;;;;;;8.82;4.47;;;;;;;13.81;98.26;100192.25;5089776;28;20071;-79
2022/10/02 09:08:38;;;;;;;6.13;3.95;;;;;;;13.83;98.54;100187.63;5085949;28;20032;-79
2022/10/02 09:11:44;;;;;;;6.55;4.28;;;;;;;13.82;98.43;100182.44;5088581;28;20701;-79
2022/10/02 09:14:15;;;;;;;9.73;4.13;;;;;;;13.92;98.63;100187.69;5071126;28;20047;-79
2022/10/02 09:17:12;;;;;;;4.07;2.50;;;;;;;13.87;98.34;100185.50;5086753;28;20052;-78
2022/10/02 09:20:03;;;;;;;4.72;1.77;;;;;;;13.92;98.04;100195.72;5098633;28;20089;-78
2022/10/02 09:23:05;;;;;;;2.90;1.98;;;;;;;13.88;98.41;100177.34;5032689;28;20109;-79
2022/10/02 09:25:50;;;;;;;4.00;2.38;;;;;;;13.85;98.34;100182.97;5040854;28;20560;-79
2022/10/02 09:28:38;;;;;;;3.28;2.50;;;;;;;13.85;98.29;100177.63;5100871;28;20059;-79
2022/10/02 09:31:55;;;;;;;6.30;4.45;;;;;;;13.87;98.61;100181.00;5101485;28;20051;-78
2022/10/02 09:34:46;;;;;;;6.32;3.60;;;;;;;13.94;98.63;100167.88;5060291;28;20066;-78
2022/10/02 09:37:17;;;;;;;3.95;2.75;;;;;;;13.96;98.63;100170.41;5100190;28;20622;-79
2022/10/02 09:40:17;;;;;;;4.50;2.95;;;;;;;13.89;98.48;100191.50;5070148;28;20051;-79
2022/10/02 09:43:08;;;;;;;3.20;2.70;;;;;;;13.89;98.41;100196.84;5090025;28;20085;-79
2022/10/02 09:45:47;;;;;;;5.55;2.00;;;;;;;13.97;98.48;100190.78;5097698;28;20039;-79
2022/10/02 09:48:22;;;;;;;2.40;1.30;;;;;;;13.98;98.67;100171.94;5072332;28;20088;-79
2022/10/02 09:51:05;;;;;;;5.70;2.10;;;;;;;14.01;98.55;100189.50;5069735;28;20040;-79
2022/10/02 09:53:58;;;;;;;3.22;1.80;;;;;;;13.99;98.47;100218.16;5085255;28;20052;-79
2022/10/02 09:56:40;;;;;;;3.22;1.70;;;;;;;13.92;98.57;100196.56;5071848;28;20139;-79
2022/10/02 09:59:29;;;;;;;3.70;1.75;;;;;;;13.90;98.82;100175.34;5090528;28;20086;-79
2022/10/02 10:02:21;;;;;;;4.57;1.85;;;;;;;13.95;98.95;100176.75;5071875;28;20063;-79
2022/10/02 10:05:07;;;;;;;3.90;2.08;;;;;;;13.98;98.75;100160.44;5099132;28;20135;-79
2022/10/02 10:07:43;;;;;;;13.20;6.88;;;;;;;14.01;98.98;100170.81;5072619;28;20084;-79
2022/10/02 10:10:41;;;;;;;11.95;6.57;;;;;;;13.98;98.87;100166.59;5083171;28;20437;-79
2022/10/02 10:13:34;;;;;;;17.13;6.68;;;;;;;13.97;98.92;100169.41;5096367;28;20399;-79
2022/10/02 10:16:29;;;;;;;8.98;3.47;;;;;;;13.99;99.08;100160.28;5087847;28;20473;-79
2022/10/02 10:19:33;;;;;;;11.02;5.72;;;;;;;13.96;98.82;100160.56;5102364;28;20505;-79
2022/10/02 10:22:33;;;;;;;10.13;5.57;;;;;;;13.96;98.82;100149.88;5105133;28;20507;-79
2022/10/02 10:25:37;;;;;;;18.55;6.53;;;;;;;13.96;98.72;100165.91;5103779;28;20068;-79
2022/10/02 10:28:22;;;;;;;7.90;4.13;;;;;;;14.03;98.80;100179.50;5104385;28;20606;-79
2022/10/02 10:31:14;;;;;;;4.95;2.80;;;;;;;13.97;98.65;100180.09;5102047;28;20559;-79
2022/10/02 10:34:04;;;;;;;8.88;2.70;;;;;;;14.00;98.68;100187.81;5101836;28;20043;-79
2022/10/02 10:39:42;;;;;;;3.90;2.10;;;;;;;14.06;99.11;100197.91;5091118;28;20063;-78
2022/10/02 10:42:33;;;;;;;4.50;2.33;;;;;;;14.04;98.89;100207.88;5074082;28;20047;-78
2022/10/02 10:45:37;;;;;;;6.60;3.03;;;;;;;14.00;99.13;100212.69;5090627;28;20441;-78
2022/10/02 10:48:27;;;;;;;7.88;2.78;;;;;;;13.97;99.39;100223.69;5086582;28;20036;-79
2022/10/02 10:51:15;;;;;;;5.22;2.00;;;;;;;14.00;98.84;100222.53;5075247;28;20048;-79
2022/10/02 10:54:03;;;;;;;4.13;2.10;;;;;;;14.07;98.99;100219.13;5087643;28;20044;-79
2022/10/02 10:56:53;;;;;;;1.90;1.40;;;;;;;13.99;98.82;100216.34;5102937;28;20048;-79
2022/10/02 10:59:44;;;;;;;3.70;1.67;;;;;;;14.01;98.67;100209.00;5069997;28;20043;-80
2022/10/02 11:02:34;;;;;;;3.03;1.40;;;;;;;14.05;98.75;100199.72;5087403;28;20040;-79
2022/10/02 11:05:40;;;;;;;2.67;1.40;;;;;;;14.03;99.29;100198.19;5094226;28;20044;-79
2022/10/02 11:08:22;;;;;;;2.53;1.17;;;;;;;14.12;99.02;100202.66;5086717;28;20060;-80
2022/10/02 11:11:15;;;;;;;2.75;1.45;;;;;;;14.11;98.96;100188.44;5103938;28;20032;-79
2022/10/02 11:13:52;;;;;;;2.20;1.77;;;;;;;14.17;99.13;100191.50;5102903;28;20038;-79
2022/10/02 11:16:22;;;;;;;3.47;2.55;;;;;;;14.17;99.02;100194.16;5100811;28;20534;-79
2022/10/02 11:19:07;;;;;;;3.38;2.75;;;;;;;14.10;98.77;100196.63;5100084;28;20614;-79
2022/10/02 11:21:56;;;;;;;5.15;3.03;;;;;;;14.17;98.87;100180.81;5103130;28;20390;-79
2022/10/02 11:24:38;;;;;;;10.52;4.72;;;;;;;14.14;98.97;100181.13;5082010;28;20548;-79
2022/10/02 11:27:36;;;;;;;4.35;3.15;;;;;;;14.16;99.35;100177.31;5105787;28;20487;-79
2022/10/02 11:30:09;;;;;;;5.10;2.65;;;;;;;14.19;99.36;100179.69;5091679;28;20048;-79
2022/10/02 11:32:55;;;;;;;6.18;3.60;;;;;;;14.12;99.27;100189.31;5099292;28;20543;-79
2022/10/02 11:35:24;;;;;;;4.78;2.58;;;;;;;14.20;99.10;100192.06;5104234;28;20040;-79
2022/10/02 11:38:25;;;;;;;9.23;4.28;;;;;;;14.11;99.31;100201.78;5101102;28;20070;-79
2022/10/02 11:41:07;;;;;;;5.72;2.80;;;;;;;14.18;99.14;100199.38;5087952;28;20085;-79
2022/10/02 11:43:37;;;;;;;6.72;3.45;;;;;;;14.20;99.21;100192.06;5075789;28;20047;-79
2022/10/02 11:46:52;;;;;;;3.90;2.40;;;;;;;14.11;99.02;100191.09;5101154;28;20079;-79
2022/10/02 11:49:37;;;;;;;2.97;2.00;;;;;;;14.20;99.31;100186.72;5058867;28;20073;-80
2022/10/02 11:52:35;;;;;;;3.75;2.03;;;;;;;14.13;99.00;100204.31;5083700;28;20042;-79
2022/10/02 11:55:23;;;;;;;8.48;4.30;;;;;;;14.16;99.78;100203.19;5087498;28;20085;-79
2022/10/02 11:58:17;;;;;;;6.22;2.50;;;;;;;14.12;99.82;100208.00;5085504;28;20036;-79
2022/10/02 12:01:04;;;;;;;6.70;2.03;;;;;;;14.10;99.58;100191.28;5075108;28;20051;-79
2022/10/02 12:03:38;;;;;;;2.60;1.30;;;;;;;14.15;99.58;100191.66;5099299;28;20044;-79
2022/10/02 12:06:30;;;;;;;8.27;3.83;;;;;;;14.08;99.33;100199.44;5080643;28;20040;-78
2022/10/02 12:09:01;;;;;;;3.65;2.22;;;;;;;14.16;99.70;100205.84;5076481;28;20100;-78
2022/10/02 12:11:35;;;;;;;2.33;1.77;;;;;;;14.17;99.27;100179.00;5085046;28;20044;-79
2022/10/02 12:14:28;;;;;;;3.67;1.60;;;;;;;14.18;99.21;100179.84;5085728;28;20245;-78
2022/10/02 12:17:23;;;;;;;3.15;2.53;;;;;;;14.08;99.31;100185.25;5087766;28;20048;-78
2022/10/02 12:29:11;;;;;;;1.33;1.15;;;;;;;14.19;99.54;100210.88;5091650;28;20040;-79
2022/10/02 12:31:50;;;;;;;2.00;1.48;;;;;;;14.19;99.42;100219.75;5098786;28;20051;-80
2022/10/02 12:34:48;;;;;;;3.17;1.35;;;;;;;14.17;99.35;100219.06;5067865;28;20046;-79
2022/10/02 12:37:28;;;;;;;2.15;1.10;;;;;;;14.23;99.59;100220.31;5090305;28;20086;-79
2022/10/02 12:40:06;;;;;;;7.30;2.95;;;;;;;14.20;99.31;100209.91;5085118;28;20123;-79